Página principal
Imagens de satélite Previsões 10 diasClimaMeteorologia maritima Ciclones Descargas eléctricas AeroportosFAQ Notícias Sobre
Tempo : Europa África América do Norte América do Sul Ásia Austrália-Oceania Outros
Línguas Contacto

Cambridge, Inglaterra

latitude: 52-12N, longitude: 000-11E, altura: 15 m


METAR: EGSC 261950Z 27008KT 9999 FEW028 05/02 Q1025
TAF: EGSC 261700Z 2618/2620 27009KT 9999 FEW030

Hora: 03:18 (03:18 UTC)

Observação actual do tempo

O boletim foi feito há 7 horas e 28 minutos, às 19:50 UTC
Vento 8 kt de oeste
Temperatura 5°C
Humidade 81%
Pressão 1025 hPa
Visibilidade 10 km ou mais
Poucas nuvensa uma altura de 2800 ft

Mudar unidades

Previsão

O boletim foi feito há 10 horas e 18 minutos, às 17:00 UTC
Previsão válida de 26 às 18 UTC a 26 às 20 UTC
Vento 9 kt de oeste
Visibilidade 10 km ou mais
Poucas nuvensa uma altura de 3000 ft
As informações contidas neste sítio estão sujeitas a uma declaração de exoneração de responsabilidade
Tempo : Europa África América do Norte América do Sul Ásia Austrália-Oceania Outros
Imagens de satélite Previsões 10 diasClimaMeteorologia maritima Ciclones Descargas eléctricas AeroportosFAQ Línguas Contacto Notícias Sobre